createdAt,value
2023-01-29T00:00:10.405Z,6.40
2023-01-29T00:01:15.417Z,6.40
2023-01-29T00:02:17.486Z,6.30
2023-01-29T00:03:19.677Z,6.30
2023-01-29T00:04:21.830Z,6.30
2023-01-29T00:05:28.512Z,6.30
2023-01-29T00:06:30.913Z,6.30
2023-01-29T00:07:33.022Z,6.30
2023-01-29T00:08:36.681Z,6.30
2023-01-29T00:09:39.004Z,6.30
2023-01-29T00:10:40.929Z,6.30
2023-01-29T00:11:42.883Z,6.30
2023-01-29T00:12:44.862Z,6.30
2023-01-29T00:13:47.794Z,6.30
2023-01-29T00:14:49.817Z,6.30
2023-01-29T00:15:56.437Z,6.30
2023-01-29T00:16:58.447Z,6.30
2023-01-29T00:18:00.443Z,6.30
2023-01-29T00:19:03.290Z,6.40
2023-01-29T00:20:05.871Z,6.30
2023-01-29T00:21:16.777Z,6.30
2023-01-29T00:22:18.761Z,6.30
2023-01-29T00:23:21.356Z,6.30
2023-01-29T00:24:23.454Z,6.30
2023-01-29T00:25:25.592Z,6.30
2023-01-29T00:26:28.114Z,6.30
2023-01-29T00:27:30.097Z,6.30
2023-01-29T00:28:32.130Z,6.30
2023-01-29T00:29:34.104Z,6.30
2023-01-29T00:30:37.296Z,6.30
2023-01-29T00:31:39.518Z,6.30
2023-01-29T00:32:42.692Z,6.30
2023-01-29T00:33:44.787Z,6.40
2023-01-29T00:34:46.995Z,6.40
2023-01-29T00:35:51.539Z,6.30
2023-01-29T00:37:04.122Z,6.30
2023-01-29T00:38:06.098Z,6.30
2023-01-29T00:39:11.102Z,6.30
2023-01-29T00:40:13.530Z,6.30
2023-01-29T00:41:34.681Z,6.30
2023-01-29T00:42:55.774Z,6.30
2023-01-29T00:44:16.938Z,6.40
2023-01-29T00:45:19.003Z,6.40
2023-01-29T00:46:20.997Z,6.40
2023-01-29T00:47:33.771Z,6.50
2023-01-29T00:48:35.967Z,6.50
2023-01-29T00:49:38.028Z,6.50
2023-01-29T00:50:44.141Z,6.40
2023-01-29T00:52:06.200Z,6.50
2023-01-29T00:53:08.190Z,6.40
2023-01-29T00:54:10.505Z,6.50
2023-01-29T00:55:13.081Z,6.50
2023-01-29T00:56:15.075Z,6.40
2023-01-29T00:57:17.160Z,6.40
2023-01-29T00:58:22.505Z,6.40
2023-01-29T00:59:24.499Z,6.40
2023-01-29T01:00:31.279Z,6.40
2023-01-29T01:01:58.098Z,6.40
2023-01-29T01:03:05.820Z,6.40
2023-01-29T01:04:12.195Z,6.40
2023-01-29T01:05:20.185Z,6.40
2023-01-29T01:06:22.159Z,6.40
2023-01-29T01:07:24.168Z,6.40
2023-01-29T01:10:46.946Z,6.40
2023-01-29T01:11:48.912Z,6.40
2023-01-29T01:13:03.342Z,6.40
2023-01-29T01:14:05.367Z,6.40
2023-01-29T01:15:07.614Z,6.40
2023-01-29T01:16:20.269Z,6.40
2023-01-29T01:17:22.433Z,6.40
2023-01-29T01:18:24.441Z,6.50
2023-01-29T01:19:26.486Z,6.50
2023-01-29T01:20:30.753Z,6.50
2023-01-29T01:21:33.421Z,6.40
2023-01-29T01:22:46.030Z,6.40
2023-01-29T01:23:48.080Z,6.50
2023-01-29T01:24:50.422Z,6.50
2023-01-29T01:25:52.370Z,6.50
2023-01-29T01:26:54.348Z,6.50
2023-01-29T01:29:00.261Z,6.50
2023-01-29T01:30:02.291Z,6.50
2023-01-29T01:31:14.336Z,6.40
2023-01-29T01:32:16.564Z,6.40
2023-01-29T01:33:18.817Z,6.40
2023-01-29T01:34:22.226Z,6.50
2023-01-29T01:35:24.211Z,6.50
2023-01-29T01:36:26.304Z,6.40
2023-01-29T01:37:30.748Z,6.50
2023-01-29T01:38:32.723Z,6.50
2023-01-29T01:39:34.938Z,6.50
2023-01-29T01:40:36.929Z,6.50
2023-01-29T01:41:38.923Z,6.50
2023-01-29T01:42:40.951Z,6.50
2023-01-29T01:43:57.800Z,6.50
2023-01-29T01:45:05.408Z,6.50
2023-01-29T01:46:07.555Z,6.50
2023-01-29T01:47:09.530Z,6.50
2023-01-29T01:48:22.550Z,6.50
2023-01-29T01:49:24.899Z,6.50
2023-01-29T01:50:36.195Z,6.50
2023-01-29T01:51:43.236Z,6.50
2023-01-29T01:52:49.511Z,6.50
2023-01-29T01:54:06.845Z,6.50
2023-01-29T01:55:12.382Z,6.40
2023-01-29T01:56:24.878Z,6.40
2023-01-29T01:57:28.749Z,6.40
2023-01-29T01:58:41.866Z,6.40
2023-01-29T01:59:49.051Z,6.40
2023-01-29T02:00:51.415Z,6.40
2023-01-29T02:01:54.541Z,6.40
2023-01-29T02:09:11.318Z,6.50
2023-01-29T02:10:17.062Z,6.50
2023-01-29T02:11:19.880Z,6.50
2023-01-29T02:12:22.537Z,6.50
2023-01-29T02:13:25.099Z,6.50
2023-01-29T02:14:27.253Z,6.50
2023-01-29T02:15:29.320Z,6.40
2023-01-29T02:16:33.670Z,6.50
2023-01-29T02:17:37.009Z,6.50
2023-01-29T02:18:40.639Z,6.50
2023-01-29T02:20:03.665Z,6.50
2023-01-29T02:21:35.263Z,6.50
2023-01-29T02:22:56.189Z,6.50
2023-01-29T02:24:44.317Z,6.50
2023-01-29T02:26:13.603Z,6.50
2023-01-29T02:27:21.691Z,6.40
2023-01-29T02:28:54.459Z,6.40
2023-01-29T02:30:16.995Z,6.40
2023-01-29T02:31:41.156Z,6.40
2023-01-29T02:33:12.661Z,6.40
2023-01-29T02:34:14.544Z,6.40
2023-01-29T02:35:29.850Z,6.40
2023-01-29T02:36:45.867Z,6.40
2023-01-29T02:37:57.246Z,6.40
2023-01-29T02:39:20.105Z,6.40
2023-01-29T02:40:44.041Z,6.40
2023-01-29T02:42:00.929Z,6.40
2023-01-29T02:43:16.114Z,6.40
2023-01-29T02:44:26.560Z,6.40
2023-01-29T02:45:40.600Z,6.40
2023-01-29T02:47:07.022Z,6.40
2023-01-29T02:48:17.111Z,6.40
2023-01-29T02:49:21.820Z,6.40
2023-01-29T02:50:48.315Z,6.40
2023-01-29T02:52:07.546Z,6.40
2023-01-29T02:53:25.071Z,6.40
2023-01-29T02:54:57.795Z,6.40
2023-01-29T02:56:17.761Z,6.40
2023-01-29T02:57:34.812Z,6.40
2023-01-29T02:58:42.075Z,6.40
2023-01-29T02:59:52.699Z,6.40
2023-01-29T03:01:00.372Z,6.40
2023-01-29T03:02:10.884Z,6.40
2023-01-29T03:03:17.686Z,6.40
2023-01-29T03:04:43.028Z,6.40
2023-01-29T03:06:07.117Z,6.40
2023-01-29T03:07:36.004Z,6.40
2023-01-29T03:08:45.717Z,6.40
2023-01-29T03:09:56.129Z,6.40
2023-01-29T03:11:03.388Z,6.40
2023-01-29T03:12:19.965Z,6.40
2023-01-29T03:14:07.175Z,6.40
2023-01-29T03:15:17.016Z,6.40
2023-01-29T03:16:59.446Z,6.30
2023-01-29T03:18:27.744Z,6.30
2023-01-29T03:19:43.749Z,6.40
2023-01-29T03:21:02.096Z,6.40
2023-01-29T03:22:08.565Z,6.30
2023-01-29T03:23:56.129Z,6.30
2023-01-29T03:25:18.334Z,6.30
2023-01-29T03:26:41.879Z,6.30
2023-01-29T03:28:07.122Z,6.30
2023-01-29T03:29:32.697Z,6.30
2023-01-29T03:30:58.785Z,6.30
2023-01-29T03:32:13.412Z,6.30
2023-01-29T03:33:34.026Z,6.20
2023-01-29T03:34:43.792Z,6.20
2023-01-29T03:36:00.863Z,6.20
2023-01-29T03:37:09.314Z,6.20
2023-01-29T03:38:12.047Z,6.30
2023-01-29T03:39:16.707Z,6.30
2023-01-29T03:40:19.681Z,6.30
2023-01-29T03:41:46.338Z,6.40
2023-01-29T03:43:15.050Z,6.40
2023-01-29T03:44:32.130Z,6.40
2023-01-29T03:46:01.763Z,6.40
2023-01-29T03:47:15.141Z,6.40
2023-01-29T03:48:35.457Z,6.40
2023-01-29T03:49:56.062Z,6.40
2023-01-29T03:51:21.224Z,6.30
2023-01-29T03:52:49.757Z,6.30
2023-01-29T03:54:16.117Z,6.30
2023-01-29T03:55:55.469Z,6.30
2023-01-29T03:57:16.125Z,6.30
2023-01-29T03:58:37.355Z,6.20
2023-01-29T03:59:47.890Z,6.20
2023-01-29T04:01:28.968Z,6.20
2023-01-29T04:02:38.584Z,6.20
2023-01-29T04:03:53.121Z,6.30
2023-01-29T04:04:59.947Z,6.20
2023-01-29T04:06:10.633Z,6.30
2023-01-29T04:07:24.547Z,6.20
2023-01-29T04:08:52.663Z,6.30
2023-01-29T04:10:06.093Z,6.30
2023-01-29T04:11:14.368Z,6.20
2023-01-29T04:12:21.574Z,6.20
2023-01-29T04:13:25.207Z,6.20
2023-01-29T04:14:27.735Z,6.20
2023-01-29T04:15:34.280Z,6.20
2023-01-29T04:16:42.033Z,6.20
2023-01-29T04:17:57.121Z,6.10
2023-01-29T04:19:14.937Z,6.10
2023-01-29T04:20:18.878Z,6.10
2023-01-29T04:21:21.196Z,6.10
2023-01-29T04:22:34.231Z,6.10
2023-01-29T04:23:36.227Z,6.10
2023-01-29T04:24:38.369Z,6.10
2023-01-29T04:25:46.854Z,6.10
2023-01-29T04:27:30.671Z,6.20
2023-01-29T04:29:00.150Z,6.20
2023-01-29T04:30:35.761Z,6.20
2023-01-29T04:31:54.689Z,6.20
2023-01-29T04:33:19.610Z,6.20
2023-01-29T04:34:29.720Z,6.20
2023-01-29T04:35:43.955Z,6.20
2023-01-29T04:37:04.575Z,6.20
2023-01-29T04:38:28.266Z,6.20
2023-01-29T04:39:51.633Z,6.20
2023-01-29T04:41:24.409Z,6.20
2023-01-29T04:43:13.607Z,6.20
2023-01-29T04:44:38.979Z,6.20
2023-01-29T04:45:47.649Z,6.20
2023-01-29T04:46:58.736Z,6.20
2023-01-29T04:48:22.349Z,6.20
2023-01-29T04:49:41.176Z,6.20
2023-01-29T04:51:03.134Z,6.20
2023-01-29T04:52:31.216Z,6.20
2023-01-29T04:54:11.459Z,6.20
2023-01-29T04:55:40.606Z,6.20
2023-01-29T04:56:54.366Z,6.20
2023-01-29T04:58:26.020Z,6.20
2023-01-29T04:59:39.064Z,6.10
2023-01-29T05:00:49.153Z,6.20
2023-01-29T05:01:51.159Z,6.20
2023-01-29T05:02:54.309Z,6.20
2023-01-29T05:03:56.429Z,6.20
2023-01-29T05:05:00.313Z,6.20
2023-01-29T05:06:04.306Z,6.10
2023-01-29T05:07:10.097Z,6.10
2023-01-29T05:08:14.497Z,6.10
2023-01-29T05:09:30.495Z,6.10
2023-01-29T05:10:34.182Z,6.10
2023-01-29T05:11:37.149Z,6.10
2023-01-29T05:12:40.372Z,6.20
2023-01-29T05:13:43.386Z,6.10
2023-01-29T05:14:47.533Z,6.20
2023-01-29T05:16:13.185Z,6.20
2023-01-29T05:17:18.805Z,6.20
2023-01-29T05:18:21.033Z,6.20
2023-01-29T05:19:22.989Z,6.20
2023-01-29T05:20:34.316Z,6.20
2023-01-29T05:21:36.379Z,6.20
2023-01-29T05:22:41.336Z,6.20
2023-01-29T05:23:53.326Z,6.20
2023-01-29T05:24:55.516Z,6.20
2023-01-29T05:25:58.150Z,6.20
2023-01-29T05:27:18.709Z,6.20
2023-01-29T05:28:20.671Z,6.20
2023-01-29T05:29:22.911Z,6.20
2023-01-29T05:30:24.953Z,6.20
2023-01-29T05:31:26.914Z,6.20
2023-01-29T05:32:28.989Z,6.20
2023-01-29T05:33:32.033Z,6.20
2023-01-29T05:35:50.831Z,6.20
2023-01-29T05:36:53.092Z,6.10
2023-01-29T05:37:56.953Z,6.20
2023-01-29T05:38:58.910Z,6.10
2023-01-29T05:40:00.802Z,6.10
2023-01-29T05:41:02.743Z,6.20
2023-01-29T05:42:05.001Z,6.10
2023-01-29T05:43:21.293Z,6.10
2023-01-29T05:44:23.251Z,6.10
2023-01-29T05:45:25.730Z,6.10
2023-01-29T05:46:27.781Z,6.10
2023-01-29T05:47:29.698Z,6.10
2023-01-29T05:48:41.760Z,6.10
2023-01-29T05:49:49.527Z,6.10
2023-01-29T05:50:52.041Z,6.10
2023-01-29T05:51:53.983Z,6.10
2023-01-29T05:53:00.374Z,6.10
2023-01-29T05:54:02.307Z,6.10
2023-01-29T05:55:04.571Z,6.10
2023-01-29T05:56:06.804Z,6.10
2023-01-29T05:57:08.718Z,6.10
2023-01-29T05:58:10.658Z,6.10
2023-01-29T05:59:12.625Z,6.10
2023-01-29T06:00:15.539Z,6.00
2023-01-29T06:01:20.443Z,6.00
2023-01-29T06:02:22.648Z,6.00
2023-01-29T06:03:24.983Z,6.00
2023-01-29T06:04:26.910Z,6.00
2023-01-29T06:05:29.025Z,6.00
2023-01-29T06:06:31.075Z,6.00
2023-01-29T06:07:32.987Z,6.00
2023-01-29T06:08:35.053Z,6.10
2023-01-29T06:09:36.995Z,6.10
2023-01-29T06:10:38.910Z,6.10
2023-01-29T06:11:40.991Z,6.10
2023-01-29T06:12:44.338Z,6.10
2023-01-29T06:13:52.738Z,6.10
2023-01-29T06:14:54.846Z,6.10
2023-01-29T06:15:56.845Z,6.10
2023-01-29T06:16:59.372Z,6.10
2023-01-29T06:18:01.270Z,6.10
2023-01-29T06:19:03.406Z,6.10
2023-01-29T06:20:06.075Z,6.10
2023-01-29T06:21:11.087Z,6.10
2023-01-29T06:22:13.017Z,6.10
2023-01-29T06:23:15.150Z,6.10
2023-01-29T06:24:17.224Z,6.10
2023-01-29T06:25:19.283Z,6.20
2023-01-29T06:26:21.453Z,6.20
2023-01-29T06:27:23.401Z,6.20
2023-01-29T06:28:25.350Z,6.20
2023-01-29T06:29:27.521Z,6.20
2023-01-29T06:30:29.498Z,6.20
2023-01-29T06:31:39.828Z,6.30
2023-01-29T06:32:42.198Z,6.30
2023-01-29T06:33:44.434Z,6.30
2023-01-29T06:34:49.623Z,6.30
2023-01-29T06:35:59.120Z,6.30
2023-01-29T06:37:01.103Z,6.30
2023-01-29T06:38:03.077Z,6.30
2023-01-29T06:39:05.194Z,6.30
2023-01-29T06:40:08.257Z,6.30
2023-01-29T06:41:16.781Z,6.30
2023-01-29T06:42:24.475Z,6.30
2023-01-29T06:43:26.527Z,6.40
2023-01-29T06:44:28.490Z,6.40
2023-01-29T06:45:30.513Z,6.40
2023-01-29T06:46:32.558Z,6.50
2023-01-29T06:47:34.554Z,6.50
2023-01-29T06:48:36.688Z,6.50
2023-01-29T06:49:38.679Z,6.60
2023-01-29T06:50:40.645Z,6.60
2023-01-29T06:51:42.632Z,6.60
2023-01-29T06:52:44.650Z,6.60
2023-01-29T06:53:46.969Z,6.70
2023-01-29T06:54:48.947Z,6.70
2023-01-29T06:55:54.135Z,6.70
2023-01-29T06:56:56.348Z,6.70
2023-01-29T06:57:58.298Z,6.80
2023-01-29T06:59:00.389Z,6.80
2023-01-29T07:00:02.436Z,6.80
2023-01-29T07:01:10.177Z,6.80
2023-01-29T07:02:12.272Z,6.80
2023-01-29T07:03:14.546Z,6.80
2023-01-29T07:04:16.535Z,6.90
2023-01-29T07:05:18.470Z,6.90
2023-01-29T07:06:20.685Z,6.90
2023-01-29T07:07:22.606Z,6.90
2023-01-29T07:08:24.586Z,6.90
2023-01-29T07:09:26.573Z,6.90
2023-01-29T07:10:28.548Z,7.00
2023-01-29T07:11:30.991Z,7.00
2023-01-29T07:12:33.076Z,7.10
2023-01-29T07:13:35.100Z,7.10
2023-01-29T07:14:37.179Z,7.10
2023-01-29T07:15:39.133Z,7.10
2023-01-29T07:16:41.183Z,7.10
2023-01-29T07:17:43.176Z,7.10
2023-01-29T07:18:45.103Z,7.10
2023-01-29T07:19:47.045Z,7.10
2023-01-29T07:20:49.082Z,7.20
2023-01-29T07:21:51.176Z,7.20
2023-01-29T07:22:53.243Z,7.20
2023-01-29T07:23:55.307Z,7.20
2023-01-29T07:24:57.335Z,7.20
2023-01-29T07:26:03.680Z,7.20
2023-01-29T07:27:05.627Z,7.20
2023-01-29T07:28:08.042Z,7.20
2023-01-29T07:29:10.065Z,7.20
2023-01-29T07:30:12.610Z,7.20
2023-01-29T07:31:15.396Z,7.20
2023-01-29T07:32:17.508Z,7.20
2023-01-29T07:33:19.432Z,7.20
2023-01-29T07:34:21.434Z,7.20
2023-01-29T07:35:23.486Z,7.20
2023-01-29T07:36:25.605Z,7.20
2023-01-29T07:37:27.522Z,7.20
2023-01-29T07:38:29.523Z,7.30
2023-01-29T07:39:31.792Z,7.30
2023-01-29T07:40:33.922Z,7.30
2023-01-29T07:41:35.896Z,7.30
2023-01-29T07:42:46.074Z,7.30
2023-01-29T07:43:48.470Z,7.40
2023-01-29T07:44:50.440Z,7.40
2023-01-29T07:45:52.689Z,7.40
2023-01-29T07:46:54.795Z,7.50
2023-01-29T07:47:56.817Z,7.50
2023-01-29T07:48:59.474Z,7.50
2023-01-29T07:50:01.413Z,7.60
2023-01-29T07:51:03.455Z,7.60
2023-01-29T07:52:05.576Z,7.70
2023-01-29T07:53:07.856Z,7.70
2023-01-29T07:54:09.783Z,7.70
2023-01-29T07:55:11.719Z,7.80
2023-01-29T07:56:13.610Z,7.80
2023-01-29T07:57:15.544Z,7.80
2023-01-29T07:58:17.655Z,7.90
2023-01-29T07:59:19.606Z,7.90
2023-01-29T08:00:22.051Z,8.00
2023-01-29T08:01:24.077Z,8.00
2023-01-29T08:02:26.175Z,8.00
2023-01-29T08:03:28.156Z,8.10
2023-01-29T08:04:30.084Z,8.10
2023-01-29T08:05:32.274Z,8.10
2023-01-29T08:06:34.249Z,8.20
2023-01-29T08:07:36.173Z,8.20
2023-01-29T08:08:38.232Z,8.30
2023-01-29T08:09:40.207Z,8.30
2023-01-29T08:10:42.703Z,8.40
2023-01-29T08:11:44.657Z,8.40
2023-01-29T08:12:46.614Z,8.50
2023-01-29T08:13:48.627Z,8.50
2023-01-29T08:14:50.573Z,8.60
2023-01-29T08:15:52.585Z,8.60
2023-01-29T08:16:54.577Z,8.60
2023-01-29T08:17:58.273Z,8.60
2023-01-29T08:19:02.286Z,8.70
2023-01-29T08:20:04.570Z,8.80
2023-01-29T08:21:06.558Z,9.00
2023-01-29T08:22:08.545Z,9.30
2023-01-29T08:23:16.455Z,9.60
2023-01-29T08:24:18.535Z,9.80
2023-01-29T08:25:20.511Z,9.90
2023-01-29T08:26:22.582Z,10.00
2023-01-29T08:27:24.572Z,10.30
2023-01-29T08:28:26.655Z,10.50
2023-01-29T08:29:28.576Z,10.50
2023-01-29T08:30:32.839Z,10.80
2023-01-29T08:31:35.339Z,10.90
2023-01-29T08:32:37.274Z,10.70
2023-01-29T08:33:39.579Z,10.70
2023-01-29T08:34:41.572Z,10.80
2023-01-29T08:35:43.646Z,10.90
2023-01-29T08:36:45.626Z,11.20
2023-01-29T08:37:58.333Z,11.30
2023-01-29T08:39:00.473Z,11.20
2023-01-29T08:40:03.387Z,11.30
2023-01-29T08:41:06.013Z,11.40
2023-01-29T08:42:07.987Z,11.70
2023-01-29T08:43:12.409Z,11.40
2023-01-29T08:44:14.339Z,10.90
2023-01-29T08:45:16.378Z,10.50
2023-01-29T08:46:18.684Z,10.20
2023-01-29T08:47:20.691Z,10.10
2023-01-29T08:48:34.356Z,10.10
2023-01-29T08:49:36.348Z,10.30
2023-01-29T08:50:38.442Z,10.20
2023-01-29T08:51:40.435Z,10.50
2023-01-29T08:52:43.209Z,10.80
2023-01-29T08:53:45.171Z,10.70
2023-01-29T08:54:47.153Z,10.90
2023-01-29T08:55:49.068Z,11.10
2023-01-29T08:56:51.429Z,11.20
2023-01-29T08:57:53.704Z,11.20
2023-01-29T08:58:55.887Z,11.00
2023-01-29T08:59:58.906Z,11.20
2023-01-29T09:01:09.450Z,11.40
2023-01-29T09:02:12.169Z,11.20
2023-01-29T09:03:14.176Z,11.30
2023-01-29T09:04:16.082Z,11.40
2023-01-29T09:05:18.688Z,11.70
2023-01-29T09:06:21.169Z,11.70
2023-01-29T09:07:23.112Z,11.80
2023-01-29T09:08:25.051Z,11.90
2023-01-29T09:09:27.141Z,11.60
2023-01-29T09:10:29.249Z,11.70
2023-01-29T09:11:31.213Z,11.90
2023-01-29T09:12:41.821Z,12.20
2023-01-29T09:13:43.804Z,12.30
2023-01-29T09:14:45.745Z,12.30
2023-01-29T09:15:47.641Z,12.30
2023-01-29T09:16:49.914Z,12.00
2023-01-29T09:17:52.232Z,12.00
2023-01-29T09:18:54.977Z,12.20
2023-01-29T09:19:57.044Z,12.40
2023-01-29T09:20:59.059Z,12.60
2023-01-29T09:22:01.011Z,12.70
2023-01-29T09:23:11.006Z,12.80
2023-01-29T09:24:12.922Z,12.80
2023-01-29T09:25:15.473Z,12.60
2023-01-29T09:26:17.623Z,12.50
2023-01-29T09:27:19.893Z,12.70
2023-01-29T09:28:21.898Z,12.80
2023-01-29T09:29:23.915Z,12.80
2023-01-29T09:30:25.939Z,12.60
2023-01-29T09:31:27.963Z,12.50
2023-01-29T09:32:52.701Z,12.70
2023-01-29T09:33:52.614Z,12.60
2023-01-29T09:34:54.848Z,12.60
2023-01-29T09:35:57.229Z,12.40
2023-01-29T09:36:59.174Z,12.30
2023-01-29T09:38:01.215Z,12.20
2023-01-29T09:39:03.210Z,12.20
2023-01-29T09:40:05.901Z,12.20
2023-01-29T09:41:58.365Z,11.80
2023-01-29T09:43:22.869Z,12.10
2023-01-29T09:44:42.911Z,12.30
2023-01-29T09:46:00.032Z,12.50
2023-01-29T09:47:06.099Z,12.40
2023-01-29T09:48:12.223Z,12.50
2023-01-29T09:49:20.193Z,12.60
2023-01-29T09:50:43.914Z,12.70
2023-01-29T09:51:51.639Z,13.10
2023-01-29T09:53:02.693Z,13.10
2023-01-29T09:54:51.117Z,13.30
2023-01-29T09:56:01.263Z,13.30
2023-01-29T09:57:03.247Z,13.10
2023-01-29T09:58:18.095Z,13.40
2023-01-29T09:59:23.843Z,13.60
2023-01-29T10:00:34.136Z,13.80
2023-01-29T10:01:56.203Z,13.70
2023-01-29T10:03:32.552Z,13.50
2023-01-29T10:04:43.218Z,13.40
2023-01-29T10:05:57.033Z,13.80
2023-01-29T10:07:16.690Z,13.90
2023-01-29T10:08:27.314Z,13.90
2023-01-29T10:09:37.516Z,14.00
2023-01-29T10:11:00.865Z,13.90
2023-01-29T10:12:24.743Z,13.90
2023-01-29T10:13:56.762Z,14.10
2023-01-29T10:14:58.713Z,13.90
2023-01-29T10:16:16.359Z,14.00
2023-01-29T10:17:21.469Z,14.30
2023-01-29T10:18:47.549Z,14.40
2023-01-29T10:20:15.655Z,14.40
2023-01-29T10:21:23.051Z,14.30
2023-01-29T10:22:31.151Z,14.10
2023-01-29T10:23:38.481Z,14.10
2023-01-29T10:25:06.458Z,13.90
2023-01-29T10:26:13.087Z,13.90
2023-01-29T10:27:18.393Z,13.80
2023-01-29T10:28:23.013Z,13.60
2023-01-29T10:29:28.396Z,13.50
2023-01-29T10:30:40.655Z,13.50
2023-01-29T10:31:44.749Z,13.40
2023-01-29T10:32:48.678Z,13.40
2023-01-29T10:34:03.821Z,13.70
2023-01-29T10:35:24.788Z,13.80
2023-01-29T10:36:43.567Z,13.70
2023-01-29T10:37:45.719Z,13.60
2023-01-29T10:38:49.164Z,13.70
2023-01-29T10:39:51.369Z,13.90
2023-01-29T10:40:59.140Z,13.60
2023-01-29T10:42:29.088Z,13.90
2023-01-29T10:43:51.022Z,13.90
2023-01-29T10:45:18.472Z,13.80
2023-01-29T10:46:23.463Z,13.90
2023-01-29T10:47:57.323Z,13.80
2023-01-29T10:49:13.231Z,13.60
2023-01-29T10:50:40.235Z,13.50
2023-01-29T10:52:08.601Z,13.60
2023-01-29T10:53:25.702Z,13.80
2023-01-29T10:54:55.636Z,14.10
2023-01-29T10:56:23.220Z,14.20
2023-01-29T10:57:50.113Z,14.40
2023-01-29T10:58:59.594Z,13.90
2023-01-29T11:00:12.758Z,14.10
2023-01-29T11:01:15.067Z,13.90
2023-01-29T11:02:21.346Z,14.00
2023-01-29T11:03:31.789Z,14.10
2023-01-29T11:04:35.389Z,14.00
2023-01-29T11:05:58.442Z,14.10
2023-01-29T11:07:00.665Z,14.20
2023-01-29T11:08:17.030Z,14.30
2023-01-29T11:09:41.629Z,14.20
2023-01-29T11:11:08.680Z,14.20
2023-01-29T11:12:15.415Z,14.10
2023-01-29T11:13:24.967Z,14.10
2023-01-29T11:14:54.879Z,13.90
2023-01-29T11:16:02.975Z,14.10
2023-01-29T11:17:30.870Z,14.50
2023-01-29T11:19:04.947Z,14.20
2023-01-29T11:20:29.529Z,14.30
2023-01-29T11:22:17.535Z,14.60
2023-01-29T11:23:28.365Z,14.60
2023-01-29T11:24:30.872Z,14.60
2023-01-29T11:25:32.898Z,14.40
2023-01-29T11:26:40.960Z,14.50
2023-01-29T11:27:47.510Z,14.40
2023-01-29T11:28:51.146Z,14.40
2023-01-29T11:29:54.233Z,14.10
2023-01-29T11:30:57.455Z,14.20
2023-01-29T11:32:00.865Z,14.10
2023-01-29T11:33:06.876Z,14.40
2023-01-29T11:34:21.897Z,14.40
2023-01-29T11:35:25.539Z,14.30
2023-01-29T11:36:35.050Z,14.20
2023-01-29T11:37:39.469Z,14.20
2023-01-29T11:38:41.469Z,14.40
2023-01-29T11:39:50.632Z,14.50
2023-01-29T11:40:53.807Z,14.50
2023-01-29T11:42:04.095Z,14.40
2023-01-29T11:43:32.615Z,14.30
2023-01-29T11:44:41.950Z,14.20
2023-01-29T11:45:44.680Z,14.10
2023-01-29T11:46:47.623Z,14.20
2023-01-29T11:47:57.302Z,14.20
2023-01-29T11:49:14.129Z,14.20
2023-01-29T11:50:28.065Z,13.90
2023-01-29T11:51:30.076Z,14.00
2023-01-29T11:52:42.084Z,14.10
2023-01-29T11:53:49.643Z,14.00
2023-01-29T11:55:07.351Z,14.00
2023-01-29T11:56:29.748Z,14.10
2023-01-29T11:57:44.121Z,14.40
2023-01-29T11:58:47.813Z,14.60
2023-01-29T11:59:52.151Z,14.70
2023-01-29T12:00:55.702Z,14.60
2023-01-29T12:02:19.298Z,14.60
2023-01-29T12:03:30.138Z,14.50
2023-01-29T12:04:32.196Z,14.30
2023-01-29T12:05:34.486Z,14.20
2023-01-29T12:06:42.745Z,14.10
2023-01-29T12:07:49.010Z,14.10
2023-01-29T12:08:56.837Z,14.30
2023-01-29T12:10:00.151Z,14.40
2023-01-29T12:11:14.722Z,14.30
2023-01-29T12:12:29.541Z,14.40
2023-01-29T12:13:31.498Z,13.90
2023-01-29T12:14:34.414Z,14.10
2023-01-29T12:15:41.497Z,14.30
2023-01-29T12:16:52.397Z,14.30
2023-01-29T12:18:03.988Z,14.50
2023-01-29T12:19:36.899Z,14.20
2023-01-29T12:20:50.229Z,14.30
2023-01-29T12:22:15.172Z,14.40
2023-01-29T12:23:47.291Z,14.10
2023-01-29T12:25:01.812Z,14.30
2023-01-29T12:26:12.958Z,14.50
2023-01-29T12:27:36.413Z,14.10
2023-01-29T12:28:59.411Z,14.20
2023-01-29T12:30:07.923Z,14.10
2023-01-29T12:31:44.280Z,14.10
2023-01-29T12:33:22.500Z,14.20
2023-01-29T12:35:06.899Z,14.10
2023-01-29T12:36:19.008Z,14.40
2023-01-29T12:37:58.866Z,14.40
2023-01-29T12:39:01.063Z,14.40
2023-01-29T12:40:03.351Z,14.60
2023-01-29T12:41:17.661Z,14.50
2023-01-29T12:42:22.687Z,14.40
2023-01-29T12:43:32.881Z,14.30
2023-01-29T12:44:46.682Z,14.20
2023-01-29T12:45:53.789Z,14.00
2023-01-29T12:47:00.366Z,14.00
2023-01-29T12:48:08.634Z,14.30
2023-01-29T12:49:22.349Z,14.50
2023-01-29T12:50:35.812Z,14.40
2023-01-29T12:51:54.549Z,14.10
2023-01-29T12:53:00.653Z,14.00
2023-01-29T12:54:12.592Z,13.70
2023-01-29T12:55:14.586Z,13.70
2023-01-29T12:57:03.789Z,13.50
2023-01-29T12:58:14.176Z,13.80
2023-01-29T12:59:25.233Z,13.70
2023-01-29T13:00:32.230Z,13.70
2023-01-29T13:01:38.017Z,13.90
2023-01-29T13:02:53.809Z,14.00
2023-01-29T13:04:01.811Z,13.90
2023-01-29T13:05:28.338Z,14.30
2023-01-29T13:06:41.645Z,13.80
2023-01-29T13:07:50.056Z,13.80
2023-01-29T13:08:55.658Z,13.70
2023-01-29T13:10:05.727Z,13.80
2023-01-29T13:11:18.944Z,13.50
2023-01-29T13:12:23.302Z,13.60
2023-01-29T13:13:42.757Z,13.40
2023-01-29T13:14:56.305Z,13.40
2023-01-29T13:16:04.413Z,13.40
2023-01-29T13:17:30.480Z,13.40
2023-01-29T13:18:46.567Z,13.30
2023-01-29T13:19:52.527Z,13.30
2023-01-29T13:20:55.508Z,13.40
2023-01-29T13:22:01.212Z,13.50
2023-01-29T13:23:18.898Z,13.70
2023-01-29T13:24:24.735Z,13.70
2023-01-29T13:25:26.782Z,13.80
2023-01-29T13:26:29.119Z,13.20
2023-01-29T13:27:33.599Z,13.20
2023-01-29T13:28:36.860Z,13.20
2023-01-29T13:29:38.864Z,13.10
2023-01-29T13:30:44.014Z,13.00
2023-01-29T13:31:48.416Z,13.10
2023-01-29T13:32:52.860Z,13.20
2023-01-29T13:34:03.758Z,13.30
2023-01-29T13:35:13.679Z,13.40
2023-01-29T13:36:20.099Z,13.50
2023-01-29T13:37:41.810Z,13.50
2023-01-29T13:38:45.231Z,13.40
2023-01-29T13:39:50.755Z,13.00
2023-01-29T13:40:56.305Z,12.90
2023-01-29T13:42:00.141Z,12.60
2023-01-29T13:43:03.329Z,12.80
2023-01-29T13:44:08.036Z,13.00
2023-01-29T13:45:21.214Z,13.20
2023-01-29T13:46:23.306Z,13.10
2023-01-29T13:47:29.940Z,12.90
2023-01-29T13:48:35.757Z,13.00
2023-01-29T13:49:42.714Z,13.10
2023-01-29T13:50:46.690Z,12.90
2023-01-29T13:51:48.761Z,13.00
2023-01-29T13:52:55.198Z,13.20
2023-01-29T13:54:00.078Z,13.00
2023-01-29T13:55:09.524Z,13.10
2023-01-29T13:56:33.047Z,12.90
2023-01-29T13:57:48.264Z,12.60
2023-01-29T13:58:54.632Z,12.70
2023-01-29T13:59:57.939Z,12.90
2023-01-29T14:01:01.648Z,13.00
2023-01-29T14:02:19.179Z,12.80
2023-01-29T14:03:21.058Z,12.70
2023-01-29T14:04:29.685Z,12.50
2023-01-29T14:05:31.755Z,12.50
2023-01-29T14:06:44.448Z,12.20
2023-01-29T14:07:46.364Z,12.50
2023-01-29T14:08:48.482Z,12.30
2023-01-29T14:09:50.508Z,12.20
2023-01-29T14:11:15.341Z,12.20
2023-01-29T14:12:23.063Z,12.20
2023-01-29T14:13:34.187Z,11.90
2023-01-29T14:15:21.756Z,11.70
2023-01-29T14:16:24.379Z,12.00
2023-01-29T14:17:27.434Z,11.90
2023-01-29T14:18:31.707Z,12.00
2023-01-29T14:19:34.626Z,12.00
2023-01-29T14:20:48.201Z,12.00
2023-01-29T14:21:51.327Z,11.90
2023-01-29T14:22:59.969Z,12.00
2023-01-29T14:24:16.971Z,12.00
2023-01-29T14:25:21.400Z,12.00
2023-01-29T14:26:45.699Z,12.10
2023-01-29T14:27:48.719Z,11.80
2023-01-29T14:29:03.843Z,11.80
2023-01-29T14:30:16.733Z,11.70
2023-01-29T14:31:50.101Z,11.60
2023-01-29T14:32:52.110Z,11.40
2023-01-29T14:34:00.146Z,11.40
2023-01-29T14:35:18.292Z,11.50
2023-01-29T14:36:22.675Z,11.30
2023-01-29T14:37:41.178Z,11.30
2023-01-29T14:38:52.551Z,11.30
2023-01-29T14:40:12.614Z,11.20
2023-01-29T14:41:31.485Z,11.20
2023-01-29T14:42:39.357Z,11.00
2023-01-29T14:43:41.358Z,11.10
2023-01-29T14:44:46.833Z,11.10
2023-01-29T14:45:49.637Z,11.20
2023-01-29T14:46:53.014Z,11.10
2023-01-29T14:47:57.763Z,11.20
2023-01-29T14:48:59.969Z,11.10
2023-01-29T14:50:23.114Z,11.10
2023-01-29T14:51:27.601Z,11.10
2023-01-29T14:52:42.253Z,11.30
2023-01-29T14:53:49.184Z,11.10
2023-01-29T14:54:52.868Z,11.00
2023-01-29T14:56:00.184Z,11.00
2023-01-29T14:57:06.084Z,11.10
2023-01-29T14:58:17.726Z,11.00
2023-01-29T14:59:32.017Z,11.10
2023-01-29T15:00:39.075Z,10.90
2023-01-29T15:01:56.485Z,10.80
2023-01-29T15:03:02.021Z,10.80
2023-01-29T15:04:12.186Z,10.80
2023-01-29T15:05:23.940Z,10.80
2023-01-29T15:06:34.025Z,10.60
2023-01-29T15:07:51.988Z,10.60
2023-01-29T15:09:15.178Z,10.60
2023-01-29T15:11:13.448Z,10.50
2023-01-29T15:12:31.480Z,10.50
2023-01-29T15:13:56.673Z,10.40
2023-01-29T15:15:16.196Z,10.40
2023-01-29T15:16:25.002Z,10.40
2023-01-29T15:17:49.791Z,10.20
2023-01-29T15:18:57.391Z,10.10